Time;durP1;ratioP1;P1;durP2;ratioP2;P2;SDS_P1;SDS_P2;PMS_P1;PMS_P2;Temp;Humidity;BMP_temperature;BMP_pressure;BME280_temperature;BME280_humidity;BME280_pressure;Samples;Min_cycle;Max_cycle;Signal;HPM_P1;HPM_P2
2022/07/04 00:01:16;;;;;;;0.40;0.40;;;19.90;60.50;;;20.42;44.57;95108.91;5056885;28;20214;-78
2022/07/04 00:03:43;;;;;;;0.40;0.40;;;19.80;60.40;;;20.40;44.68;95109.16;5072548;28;20238;-79
2022/07/04 00:06:10;;;;;;;0.43;0.43;;;19.90;60.60;;;20.38;44.60;95107.81;5039123;28;20223;-78
2022/07/04 00:08:38;;;;;;;0.40;0.40;;;19.80;60.60;;;20.40;44.63;95106.50;5050117;28;20203;-79
2022/07/04 00:11:05;;;;;;;0.50;0.50;;;19.80;60.60;;;20.40;44.59;95109.16;5063846;28;20230;-79
2022/07/04 00:13:32;;;;;;;0.43;0.43;;;19.80;60.80;;;20.39;44.56;95101.44;5052563;28;20281;-79
2022/07/04 00:15:59;;;;;;;0.40;0.40;;;19.80;62.00;;;20.38;45.01;95103.28;5042970;28;20604;-79
2022/07/04 00:18:27;;;;;;;0.40;0.40;;;19.80;61.20;;;20.33;44.73;95092.56;5053306;28;20198;-79
2022/07/04 00:20:55;;;;;;;0.50;0.50;;;19.70;60.90;;;20.32;44.56;95098.94;5045945;28;20693;-78
2022/07/04 00:23:22;;;;;;;0.52;0.52;;;19.70;61.00;;;20.31;44.68;95094.66;5068959;28;20233;-78
2022/07/04 00:25:50;;;;;;;0.40;0.40;;;19.70;61.00;;;20.31;44.68;95102.66;5036936;28;20214;-79
2022/07/04 00:28:18;;;;;;;0.40;0.40;;;19.60;60.90;;;20.31;44.77;95094.66;5070499;28;20664;-78
2022/07/04 00:30:45;;;;;;;0.40;0.40;;;19.70;61.00;;;20.33;45.22;95091.78;5052709;28;20262;-79
2022/07/04 00:33:13;;;;;;;0.40;0.40;;;19.70;61.10;;;20.34;45.15;95082.72;5031145;28;20293;-79
2022/07/04 00:35:40;;;;;;;0.40;0.40;;;19.70;61.30;;;20.33;44.93;95086.44;5058719;28;20723;-78
2022/07/04 00:38:08;;;;;;;0.50;0.50;;;19.70;61.40;;;20.33;44.88;95078.44;5062886;28;20190;-79
2022/07/04 00:40:35;;;;;;;0.50;0.50;;;19.70;61.40;;;20.30;45.01;95079.75;5072585;28;20814;-78
2022/07/04 00:43:04;;;;;;;0.50;0.50;;;19.60;61.20;;;20.27;45.48;95066.94;5072673;28;20667;-79
2022/07/04 00:45:32;;;;;;;0.40;0.40;;;19.70;61.60;;;20.26;45.69;95073.31;5050476;28;20219;-79
2022/07/04 00:47:59;;;;;;;0.50;0.50;;;19.60;61.50;;;20.24;45.67;95072.78;5035978;28;20192;-79
2022/07/04 00:50:27;;;;;;;0.43;0.43;;;19.70;61.50;;;20.26;45.25;95075.97;5035871;28;20604;-79
2022/07/04 00:52:55;;;;;;;0.40;0.40;;;19.60;61.50;;;20.25;45.34;95071.69;5052031;28;20197;-79
2022/07/04 00:55:23;;;;;;;0.40;0.40;;;19.60;62.60;;;20.23;45.22;95063.97;5072277;28;20309;-79
2022/07/04 00:57:50;;;;;;;0.50;0.50;;;19.60;61.90;;;20.20;45.53;95060.97;5041834;28;20564;-79
2022/07/04 01:00:18;;;;;;;0.40;0.40;;;19.60;61.90;;;20.17;45.64;95056.16;5053455;28;20304;-77
2022/07/04 01:02:46;;;;;;;0.50;0.50;;;19.60;62.10;;;20.13;46.54;95061.19;5035494;28;20211;-78
2022/07/04 01:05:15;;;;;;;0.40;0.40;;;19.60;62.20;;;20.09;46.01;95058.22;5051336;28;20235;-78
2022/07/04 01:07:43;;;;;;;0.50;0.50;;;19.60;62.30;;;20.07;46.42;95054.19;5055896;28;20671;-79
2022/07/04 01:10:11;;;;;;;0.40;0.40;;;19.50;62.20;;;20.05;46.15;95059.75;5071215;28;20268;-79
2022/07/04 01:12:39;;;;;;;0.47;0.47;;;19.50;62.20;;;20.06;46.13;95055.25;5088684;28;20197;-79
2022/07/04 01:15:07;;;;;;;0.45;0.45;;;19.50;62.40;;;20.04;46.10;95054.69;5052597;28;20226;-79
2022/07/04 01:17:35;;;;;;;0.43;0.43;;;19.50;62.70;;;20.03;46.26;95058.38;5055071;28;20187;-79
2022/07/04 01:20:04;;;;;;;0.40;0.40;;;19.50;62.80;;;19.99;46.43;95056.22;5071730;28;20773;-79
2022/07/04 01:22:31;;;;;;;0.50;0.50;;;19.40;63.00;;;19.96;46.52;95056.72;5070640;28;20203;-79
2022/07/04 01:24:59;;;;;;;0.40;0.40;;;19.40;62.70;;;19.95;46.41;95048.97;5050972;28;20250;-78
2022/07/04 01:27:26;;;;;;;0.43;0.43;;;19.40;62.90;;;19.94;46.65;95044.72;5068462;28;20223;-79
2022/07/04 01:29:53;;;;;;;0.45;0.45;;;19.40;62.90;;;19.93;46.74;95046.56;5036738;28;20238;-78
2022/07/04 01:32:20;;;;;;;0.50;0.50;;;19.40;63.00;;;19.93;46.66;95046.56;5070197;28;20194;-79
2022/07/04 01:34:47;;;;;;;0.40;0.40;;;19.30;62.90;;;19.93;47.01;95040.44;5052624;28;20268;-78
2022/07/04 01:37:15;;;;;;;0.50;0.50;;;19.30;62.90;;;19.94;46.86;95053.47;5052278;28;20225;-79
2022/07/04 01:39:42;;;;;;;0.40;0.40;;;19.40;63.00;;;19.92;46.96;95044.97;5067527;28;20229;-78
2022/07/04 01:42:10;;;;;;;0.43;0.43;;;19.30;62.90;;;19.97;46.91;95052.22;5047928;28;20201;-79
2022/07/04 01:44:37;;;;;;;0.40;0.40;;;19.40;63.00;;;19.96;47.03;95061.25;5051492;28;20206;-79
2022/07/04 01:47:05;;;;;;;0.47;0.47;;;19.30;63.00;;;19.97;46.81;95055.66;5053900;28;20206;-79
2022/07/04 01:49:32;;;;;;;0.40;0.40;;;19.30;63.00;;;19.97;47.32;95058.34;5054972;28;20191;-79
2022/07/04 01:51:59;;;;;;;0.40;0.40;;;19.30;63.00;;;19.96;47.26;95053.25;5035601;28;20230;-77
2022/07/04 01:54:27;;;;;;;0.40;0.40;;;19.40;63.10;;;19.95;47.39;95062.28;5052914;28;20206;-78
2022/07/04 01:56:54;;;;;;;0.50;0.50;;;19.30;63.00;;;19.90;47.30;95052.38;5035933;28;20206;-79
2022/07/04 02:01:29;;;;;;;0.50;0.50;;;19.40;63.00;;;19.83;47.12;95036.59;5018415;28;20574;-78
2022/07/04 02:02:09;;;;;;;0.50;0.50;;;19.30;63.00;;;19.82;47.34;95048.28;5079633;28;20210;-79
2022/07/04 02:04:37;;;;;;;0.45;0.45;;;19.40;63.10;;;19.79;47.89;95053.28;5069725;28;20210;-79
2022/07/04 02:07:04;;;;;;;0.40;0.40;;;19.30;63.00;;;19.74;48.08;95048.69;5068039;28;20206;-79
2022/07/04 02:09:31;;;;;;;0.40;0.40;;;19.20;63.90;;;19.73;47.96;95054.25;5050958;28;20306;-78
2022/07/04 02:14:44;;;;;;;0.60;0.60;;;19.20;63.20;;;19.70;47.83;95046.75;5057128;28;20684;-79
2022/07/04 02:17:12;;;;;;;0.43;0.43;;;19.10;63.20;;;19.66;47.53;95044.59;5053449;28;20197;-78
2022/07/04 02:19:39;;;;;;;0.50;0.50;;;19.20;63.50;;;19.67;47.99;95040.06;5052131;28;20262;-78
2022/07/04 02:22:06;;;;;;;0.40;0.40;;;19.10;63.50;;;19.63;47.86;95039.75;5051329;28;20205;-78
2022/07/04 02:24:33;;;;;;;0.40;0.40;;;19.10;63.80;;;19.62;48.52;95040.81;5054420;28;20218;-79
2022/07/04 02:27:01;;;;;;;0.50;0.50;;;19.10;64.00;;;19.63;48.21;95044.28;5053381;28;20301;-79
2022/07/04 02:29:28;;;;;;;0.40;0.40;;;19.10;64.20;;;19.65;48.27;95039.50;5064248;28;20194;-79
2022/07/04 02:31:55;;;;;;;0.50;0.50;;;19.10;64.20;;;19.65;48.75;95042.16;5038206;28;20191;-79
2022/07/04 02:34:23;;;;;;;0.45;0.45;;;19.10;64.60;;;19.68;49.15;95045.16;5054160;28;20199;-79
2022/07/04 02:36:50;;;;;;;0.40;0.40;;;19.10;64.70;;;19.70;49.24;95050.25;5055758;28;20201;-79
2022/07/04 02:39:17;;;;;;;0.40;0.40;;;19.10;64.80;;;19.73;49.35;95052.41;5075106;28;20715;-79
2022/07/04 02:41:44;;;;;;;0.40;0.40;;;19.10;64.90;;;19.76;50.13;95057.25;5067845;28;20202;-79
2022/07/04 02:44:11;;;;;;;0.43;0.43;;;19.20;65.20;;;19.77;49.38;95048.19;5037299;28;20245;-78
2022/07/04 02:46:38;;;;;;;0.50;0.50;;;19.20;65.20;;;19.79;49.67;95047.97;5056894;28;20218;-79
2022/07/04 02:49:05;;;;;;;0.50;0.50;;;19.30;65.10;;;19.82;49.29;95055.44;5053521;28;20232;-79
2022/07/04 02:51:34;;;;;;;0.50;0.50;;;19.20;65.10;;;19.82;49.35;95053.59;5040786;28;20221;-79
2022/07/04 02:54:01;;;;;;;0.50;0.50;;;19.20;65.10;;;19.80;50.09;95058.34;5057148;28;20202;-79
2022/07/04 02:56:28;;;;;;;0.40;0.40;;;19.30;65.30;;;19.80;49.37;95054.91;5090239;28;20276;-79
2022/07/04 02:58:55;;;;;;;0.40;0.40;;;19.30;65.30;;;19.80;49.92;95058.34;5069362;28;20708;-78
2022/07/04 03:01:22;;;;;;;0.43;0.43;;;19.30;65.40;;;19.80;49.75;95066.34;5055345;28;20243;-78
2022/07/04 03:03:50;;;;;;;0.50;0.50;;;19.30;65.50;;;19.79;50.03;95072.69;5069014;28;20733;-78
2022/07/04 03:06:17;;;;;;;0.40;0.40;;;19.30;65.50;;;19.76;49.92;95075.06;5070362;28;20222;-78
2022/07/04 03:08:45;;;;;;;0.40;0.40;;;19.30;65.50;;;19.72;50.38;95085.38;5070940;28;20212;-78
2022/07/04 03:11:12;;;;;;;0.45;0.45;;;19.30;65.50;;;19.69;50.37;95080.56;5071587;28;20211;-78
2022/07/04 03:13:41;;;;;;;0.40;0.40;;;19.20;65.30;;;19.65;50.05;95077.59;5054584;28;20664;-79
2022/07/04 03:16:08;;;;;;;0.40;0.40;;;19.30;65.40;;;19.66;50.34;95081.84;5055862;28;20230;-79
2022/07/04 03:18:35;;;;;;;0.40;0.40;;;19.30;65.50;;;19.66;50.03;95081.03;5054799;28;20203;-78
2022/07/04 03:21:06;;;;;;;0.55;0.55;;;19.30;65.50;;;19.67;50.58;95082.66;5089159;28;20232;-79
2022/07/04 03:23:39;;;;;;;0.50;0.50;;;19.30;65.70;;;19.70;51.19;95090.16;5073416;28;20201;-79
2022/07/04 03:26:06;;;;;;;0.40;0.40;;;19.20;65.70;;;19.71;51.18;95086.44;5054181;28;20245;-79
2022/07/04 03:28:33;;;;;;;0.40;0.40;;;19.20;65.90;;;19.74;51.49;95093.09;5072206;28;20221;-79
2022/07/04 03:31:00;;;;;;;0.40;0.40;;;19.30;66.10;;;19.76;51.00;95094.50;5053211;28;20218;-79
2022/07/04 03:33:27;;;;;;;0.40;0.40;;;19.30;66.00;;;19.79;51.24;95101.97;5057444;28;20232;-79
2022/07/04 03:35:55;;;;;;;0.30;0.30;;;19.30;66.00;;;19.81;50.88;95097.22;5057458;28;20579;-79
2022/07/04 03:38:22;;;;;;;0.50;0.50;;;19.50;66.30;;;19.82;51.35;95093.53;5073299;28;20197;-79
2022/07/04 03:40:49;;;;;;;0.40;0.40;;;19.40;66.20;;;19.90;51.27;95107.50;5038489;28;20279;-78
2022/07/04 03:43:16;;;;;;;0.40;0.40;;;19.40;66.30;;;19.94;51.24;95106.72;5057148;28;20195;-79
2022/07/04 03:45:43;;;;;;;0.50;0.50;;;19.40;66.40;;;19.98;51.20;95101.72;5043311;28;20634;-79
2022/07/04 03:48:10;;;;;;;0.50;0.50;;;19.50;66.60;;;20.05;51.81;95109.53;5061386;28;20205;-79
2022/07/04 03:50:37;;;;;;;0.40;0.40;;;19.60;66.80;;;20.10;51.99;95104.28;5056267;28;20233;-78
2022/07/04 03:53:04;;;;;;;0.40;0.40;;;19.60;66.70;;;20.14;51.67;95105.38;5071219;28;20276;-78
2022/07/04 03:55:31;;;;;;;0.40;0.40;;;19.60;66.70;;;20.20;51.30;95111.59;5074006;28;20211;-78
2022/07/04 03:57:58;;;;;;;0.45;0.45;;;19.80;66.70;;;20.17;51.40;95107.56;5070352;28;20203;-80
2022/07/04 04:00:25;;;;;;;0.40;0.40;;;19.80;66.60;;;20.20;50.95;95117.72;5053288;28;20203;-78
2022/07/04 04:02:52;;;;;;;0.50;0.50;;;19.70;66.30;;;20.18;50.98;95124.34;5070279;28;20226;-79
2022/07/04 04:05:30;;;;;;;0.40;0.40;;;19.80;66.30;;;20.13;51.15;95103.78;5055322;28;20260;-79
2022/07/04 04:08:01;;;;;;;0.40;0.40;;;19.70;66.30;;;20.13;51.51;95111.78;5053189;28;20223;-78
2022/07/04 04:10:33;;;;;;;0.40;0.40;;;19.70;67.50;;;20.14;51.13;95114.19;5037022;28;20207;-79
2022/07/04 04:13:00;;;;;;;0.40;0.40;;;19.70;66.50;;;20.17;51.53;95117.41;5049896;28;20729;-80
2022/07/04 04:15:27;;;;;;;0.47;0.47;;;19.80;66.70;;;20.20;51.59;95114.25;5055929;28;20218;-79
2022/07/04 04:17:54;;;;;;;0.40;0.40;;;19.80;66.90;;;20.25;51.97;95119.63;5072282;28;20281;-80
2022/07/04 04:20:21;;;;;;;0.43;0.43;;;19.80;67.30;;;20.31;52.32;95119.47;5070539;28;20215;-79
2022/07/04 04:22:50;;;;;;;0.50;0.50;;;19.90;67.30;;;20.41;51.97;95118.78;5056087;28;20213;-79
2022/07/04 04:25:17;;;;;;;0.40;0.40;;;20.00;67.50;;;20.55;52.47;95121.84;5052222;28;20276;-79
2022/07/04 04:27:45;;;;;;;0.40;0.40;;;20.10;67.70;;;20.71;52.03;95119.34;5069177;28;20302;-79
2022/07/04 04:30:12;;;;;;;0.30;0.30;;;20.20;67.70;;;20.85;52.34;95125.94;5048610;28;20210;-79
2022/07/04 04:32:40;;;;;;;0.30;0.30;;;20.30;68.00;;;21.02;52.45;95125.84;5071116;28;20711;-80
2022/07/04 04:35:07;;;;;;;0.40;0.40;;;20.50;68.00;;;21.19;52.14;95120.38;5038087;28;20765;-78
2022/07/04 04:37:34;;;;;;;0.30;0.30;;;20.60;67.70;;;21.35;51.78;95123.16;5019698;28;20195;-80
2022/07/04 04:40:01;;;;;;;0.30;0.30;;;20.70;67.50;;;21.50;51.83;95115.28;5036117;28;20601;-80
2022/07/04 04:42:29;;;;;;;0.30;0.30;;;20.90;68.70;;;21.62;52.17;95106.31;5068086;28;20202;-79
2022/07/04 04:44:56;;;;;;;0.40;0.40;;;21.10;67.70;;;21.76;51.63;95110.16;5055588;28;20707;-79
2022/07/04 04:47:23;;;;;;;0.40;0.40;;;21.20;67.50;;;21.88;51.97;95105.41;5055935;28;20206;-79
2022/07/04 04:49:51;;;;;;;0.30;0.30;;;21.30;67.30;;;22.01;51.50;95104.16;5073159;28;20208;-78
2022/07/04 04:52:18;;;;;;;0.40;0.40;;;21.40;67.60;;;22.11;51.91;95098.06;5054906;28;20288;-79
2022/07/04 04:54:44;;;;;;;0.40;0.40;;;21.50;67.30;;;22.18;51.77;95103.16;5039084;28;20239;-79
2022/07/04 04:57:12;;;;;;;0.40;0.40;;;21.60;67.30;;;22.28;51.55;95110.44;5069016;28;20213;-79
2022/07/04 04:59:39;;;;;;;0.40;0.40;;;21.70;67.10;;;22.35;51.10;95108.28;5052872;28;20563;-79
2022/07/04 05:02:07;;;;;;;0.30;0.30;;;21.90;66.90;;;22.46;51.34;95106.50;5068274;28;20442;-81
2022/07/04 05:04:42;;;;;;;0.45;0.45;;;21.90;66.90;;;22.60;51.03;95112.19;5045229;28;20228;-80
2022/07/04 05:07:11;;;;;;;0.30;0.30;;;22.10;67.10;;;22.75;51.64;95127.44;5052786;28;20294;-80
2022/07/04 05:09:39;;;;;;;0.40;0.40;;;22.20;67.20;;;22.90;50.90;95119.47;5033900;28;20326;-80
2022/07/04 05:12:06;;;;;;;0.30;0.30;;;22.30;67.70;;;23.07;50.92;95121.09;5050254;28;20223;-80
2022/07/04 05:14:33;;;;;;;0.40;0.40;;;22.50;67.00;;;23.21;50.73;95127.56;5032451;28;20437;-80
2022/07/04 05:17:02;;;;;;;0.40;0.40;;;22.70;66.70;;;23.35;50.53;95133.16;5031436;28;20195;-81
2022/07/04 05:19:29;;;;;;;0.40;0.40;;;22.70;66.60;;;23.45;50.54;95140.44;5048306;28;20221;-79
2022/07/04 05:21:56;;;;;;;0.40;0.40;;;22.90;66.40;;;23.55;50.50;95134.28;5048419;28;20198;-80
2022/07/04 05:24:23;;;;;;;0.40;0.40;;;23.00;65.90;;;23.62;50.21;95134.78;5050250;28;20187;-78
2022/07/04 05:26:50;;;;;;;0.43;0.43;;;23.10;65.90;;;23.69;50.05;95143.34;5034278;28;20200;-78
2022/07/04 05:29:23;;;;;;;0.30;0.30;;;23.20;66.00;;;23.72;50.23;95144.69;5035418;28;20179;-79
2022/07/04 05:31:50;;;;;;;0.30;0.30;;;23.30;66.10;;;23.77;50.37;95140.13;5051867;28;20198;-79
2022/07/04 05:34:21;;;;;;;0.40;0.40;;;23.30;66.10;;;23.83;50.26;95148.97;5052782;28;20200;-80
2022/07/04 05:36:48;;;;;;;0.40;0.40;;;23.40;66.10;;;23.90;50.57;95144.13;5051686;28;20206;-80
2022/07/04 05:39:15;;;;;;;0.38;0.38;;;23.40;66.20;;;23.97;50.57;95135.84;5050637;28;20195;-80
2022/07/04 05:41:43;;;;;;;0.43;0.43;;;23.50;67.20;;;24.04;50.65;95139.03;5034724;28;20225;-80
2022/07/04 05:44:11;;;;;;;0.40;0.40;;;23.60;66.30;;;24.10;50.79;95137.94;5051079;28;20677;-81
2022/07/04 05:46:38;;;;;;;0.30;0.30;;;23.70;66.40;;;24.17;50.91;95139.53;5034957;28;20239;-80
2022/07/04 05:49:05;;;;;;;0.50;0.50;;;23.80;66.50;;;24.21;50.88;95146.75;5050456;28;20247;-80
2022/07/04 05:51:32;;;;;;;0.40;0.40;;;23.80;66.40;;;24.25;50.86;95152.38;5051278;28;20219;-79
2022/07/04 05:53:59;;;;;;;0.52;0.52;;;23.80;66.70;;;24.30;51.14;95163.06;5051271;28;20717;-80
2022/07/04 05:56:27;;;;;;;0.30;0.30;;;23.90;66.60;;;24.33;50.64;95172.44;5034966;28;20222;-80
2022/07/04 05:58:54;;;;;;;0.30;0.30;;;23.90;66.60;;;24.34;50.62;95176.75;5034832;28;20684;-81
2022/07/04 06:01:21;;;;;;;0.52;0.52;;;23.90;66.60;;;24.32;50.89;95181.59;5051340;28;20221;-79
2022/07/04 06:03:49;;;;;;;0.40;0.40;;;24.00;66.70;;;24.29;50.78;95186.41;5050557;28;20711;-80
2022/07/04 06:06:16;;;;;;;0.30;0.30;;;23.90;66.60;;;24.24;50.50;95190.97;5034596;28;20250;-79
2022/07/04 06:08:44;;;;;;;0.30;0.30;;;24.00;66.00;;;24.18;50.61;95194.75;5051416;28;20199;-81
2022/07/04 06:11:11;;;;;;;0.30;0.30;;;24.00;66.00;;;24.13;50.54;95193.69;5051225;28;20230;-80
2022/07/04 06:13:38;;;;;;;0.30;0.30;;;23.90;65.90;;;24.09;50.77;95200.66;5051060;28;20203;-80
2022/07/04 06:16:05;;;;;;;0.30;0.30;;;23.90;65.80;;;24.01;49.95;95193.19;5034643;28;20681;-80
2022/07/04 06:18:33;;;;;;;0.32;0.32;;;23.80;65.70;;;23.95;50.17;95197.72;5034451;28;20205;-79
2022/07/04 06:21:00;;;;;;;0.30;0.30;;;23.80;65.60;;;23.90;50.43;95184.31;5034420;28;20237;-78
2022/07/04 06:23:28;;;;;;;0.30;0.30;;;23.80;65.60;;;23.90;50.61;95192.34;5034370;28;20207;-78
2022/07/04 06:25:55;;;;;;;0.30;0.30;;;23.70;65.90;;;23.93;50.32;95210.59;5018121;28;20688;-80
2022/07/04 06:28:22;;;;;;;0.30;0.30;;;23.70;66.00;;;23.98;50.64;95210.56;5051048;28;20231;-80
2022/07/04 06:31:12;;;;;;;0.50;0.50;;;23.70;66.40;;;24.00;50.57;95204.97;5053839;28;20237;-80
2022/07/04 06:36:24;;;;;;;0.40;0.40;;;23.80;66.20;;;24.04;50.64;95207.91;5051179;28;20215;-79
2022/07/04 06:38:51;;;;;;;0.30;0.30;;;23.80;66.10;;;24.05;50.19;95204.16;5034391;28;20199;-80
2022/07/04 06:41:18;;;;;;;0.30;0.30;;;23.80;65.90;;;24.11;50.42;95208.44;5050884;28;20227;-80
2022/07/04 06:43:46;;;;;;;0.30;0.30;;;23.80;66.00;;;24.14;50.01;95215.91;5034260;28;20212;-80
2022/07/04 06:46:13;;;;;;;0.30;0.30;;;23.90;65.80;;;24.18;50.11;95226.91;5050774;28;20296;-80
2022/07/04 06:48:40;;;;;;;0.30;0.30;;;23.90;65.70;;;24.25;50.02;95227.44;5034276;28;20204;-78
2022/07/04 06:51:07;;;;;;;0.30;0.30;;;24.00;65.60;;;24.33;49.54;95226.06;5050511;28;20223;-80
2022/07/04 06:53:35;;;;;;;0.38;0.38;;;24.00;65.40;;;24.38;49.86;95213.47;5050707;28;20194;-79
2022/07/04 06:56:02;;;;;;;0.35;0.35;;;24.10;65.60;;;24.49;49.57;95210.78;5050857;28;20225;-80
2022/07/04 06:58:30;;;;;;;0.30;0.30;;;24.10;65.60;;;24.58;49.75;95207.25;5018145;28;20206;-80
2022/07/04 07:00:57;;;;;;;0.35;0.35;;;24.20;65.50;;;24.66;49.11;95213.13;5034136;28;20230;-79
2022/07/04 07:03:24;;;;;;;0.30;0.30;;;24.20;65.20;;;24.76;49.33;95202.38;5050627;28;20203;-80
2022/07/04 07:05:51;;;;;;;0.38;0.38;;;24.30;65.50;;;24.86;49.42;95201.53;5048631;28;20223;-80
2022/07/04 07:08:28;;;;;;;0.30;0.30;;;24.40;65.30;;;24.96;49.50;95198.00;5034585;28;20203;-78
2022/07/04 07:10:57;;;;;;;0.40;0.40;;;24.50;65.50;;;25.09;49.56;95194.69;5033321;28;20207;-80
2022/07/04 07:13:25;;;;;;;0.30;0.30;;;24.60;65.60;;;25.22;49.28;95198.66;5050657;28;20677;-80
2022/07/04 07:15:52;;;;;;;0.30;0.30;;;24.80;65.50;;;25.36;49.17;95194.25;5054111;28;20216;-80
2022/07/04 07:18:20;;;;;;;0.43;0.43;;;24.90;65.30;;;25.49;48.77;95205.50;5053973;28;20199;-79
2022/07/04 07:20:47;;;;;;;0.30;0.30;;;25.00;65.10;;;25.65;48.62;95193.56;5048527;28;20223;-80
2022/07/04 07:23:15;;;;;;;0.30;0.30;;;25.20;65.20;;;25.81;48.71;95199.59;5037841;28;20192;-79
2022/07/04 07:25:42;;;;;;;0.50;0.50;;;25.30;65.10;;;25.95;48.82;95197.06;5053466;28;20236;-80
2022/07/04 07:28:09;;;;;;;0.30;0.30;;;25.50;65.00;;;26.12;48.13;95204.75;5068632;28;20192;-80
2022/07/04 07:30:36;;;;;;;0.32;0.32;;;25.60;64.80;;;26.26;48.31;95204.88;5051994;28;20220;-80
2022/07/04 07:33:03;;;;;;;0.30;0.30;;;25.70;64.50;;;26.36;48.45;95207.44;5035695;28;20703;-78
2022/07/04 07:35:30;;;;;;;0.30;0.30;;;25.90;64.30;;;26.47;48.11;95205.44;5052284;28;20222;-80
2022/07/04 07:37:57;;;;;;;0.30;0.30;;;26.00;64.40;;;26.58;48.52;95195.38;5052690;28;20313;-78
2022/07/04 07:40:24;;;;;;;0.30;0.30;;;26.10;64.60;;;26.63;47.52;95192.63;5036365;28;20568;-80
2022/07/04 07:42:54;;;;;;;0.40;0.40;;;26.20;63.80;;;26.67;47.49;95204.44;5037017;28;20210;-80
2022/07/04 07:45:21;;;;;;;0.30;0.30;;;26.30;63.90;;;26.69;47.75;95194.16;5053566;28;20746;-81
2022/07/04 07:47:48;;;;;;;0.30;0.30;;;26.30;63.60;;;26.73;47.44;95202.47;5036985;28;20206;-80
2022/07/04 07:50:15;;;;;;;0.35;0.35;;;26.40;63.70;;;26.76;47.71;95193.84;5053271;28;20227;-80
2022/07/04 07:52:42;;;;;;;0.30;0.30;;;26.40;63.60;;;26.77;46.98;95197.34;5053647;28;20583;-79
2022/07/04 07:55:10;;;;;;;0.30;0.30;;;26.40;63.20;;;26.78;47.02;95198.94;5053481;28;20241;-79
2022/07/04 07:57:37;;;;;;;0.30;0.30;;;26.50;63.30;;;26.82;47.66;95205.38;5036936;28;20227;-79
2022/07/04 08:00:05;;;;;;;0.30;0.30;;;26.50;63.50;;;26.87;47.14;95201.78;5070019;28;20252;-79
2022/07/04 08:05:24;;;;;;;0.40;0.40;;;26.60;63.60;;;27.05;47.78;95202.91;5053647;28;20322;-78
2022/07/04 08:07:51;;;;;;;0.30;0.30;;;26.60;63.80;;;27.19;47.39;95203.78;5053070;28;20196;-79
2022/07/04 08:10:19;;;;;;;0.30;0.30;;;26.70;63.70;;;27.28;47.71;95196.69;5035689;28;20512;-79
2022/07/04 08:12:46;;;;;;;0.30;0.30;;;26.80;63.50;;;27.39;46.93;95188.44;5036829;28;20196;-78
2022/07/04 08:15:13;;;;;;;0.20;0.20;;;26.90;63.40;;;27.46;46.70;95187.00;5053078;28;20422;-79
2022/07/04 08:17:40;;;;;;;0.30;0.30;;;27.00;63.20;;;27.54;46.71;95195.50;5053100;28;20657;-78
2022/07/04 08:20:08;;;;;;;0.25;0.25;;;27.10;63.20;;;27.61;47.25;95194.06;5036854;28;20224;-78
2022/07/04 08:22:35;;;;;;;0.30;0.30;;;27.20;63.10;;;27.67;46.27;95199.34;5052891;28;20692;-78
2022/07/04 08:25:03;;;;;;;0.30;0.30;;;27.30;62.80;;;27.73;46.54;95193.56;5069472;28;20286;-79
2022/07/04 08:27:31;;;;;;;0.30;0.30;;;27.30;62.70;;;27.81;46.60;95184.03;5035659;28;20192;-79
2022/07/04 08:30:00;;;;;;;0.30;0.30;;;27.40;62.80;;;27.93;46.34;95188.97;5036523;28;20216;-79
2022/07/04 08:32:28;;;;;;;0.32;0.32;;;27.50;62.60;;;27.99;46.47;95181.56;5036466;28;20666;-79
2022/07/04 08:34:55;;;;;;;0.30;0.30;;;27.60;62.50;;;28.02;46.25;95184.47;5019792;28;20337;-79
2022/07/04 08:37:23;;;;;;;0.35;0.35;;;27.70;62.40;;;28.04;44.88;95182.28;5052686;28;20212;-79
2022/07/04 08:39:50;;;;;;;0.30;0.30;;;27.70;61.60;;;28.03;44.68;95179.91;5054513;28;20243;-78
2022/07/04 08:42:20;;;;;;;0.30;0.30;;;27.80;61.00;;;28.06;44.88;95185.53;5047586;28;20202;-79
2022/07/04 08:44:52;;;;;;;0.30;0.30;;;27.90;61.20;;;28.05;44.79;95180.41;5052251;28;20323;-79
2022/07/04 08:47:25;;;;;;;0.30;0.30;;;27.90;61.10;;;28.06;44.15;95172.06;5066375;28;20216;-79
2022/07/04 08:50:12;;;;;;;0.30;0.30;;;27.90;60.40;;;28.06;44.33;95172.06;5035642;28;20219;-79
2022/07/04 08:52:54;;;;;;;0.30;0.30;;;27.90;60.50;;;28.01;44.29;95161.31;5040671;28;20229;-79
2022/07/04 08:58:25;;;;;;;0.30;0.30;;;27.90;60.50;;;27.99;44.27;95171.59;5044963;28;20293;-80
2022/07/04 09:01:02;;;;;;;0.30;0.30;;;27.80;60.60;;;27.94;44.94;95156.31;5060667;28;20228;-78
2022/07/04 09:03:30;;;;;;;0.30;0.30;;;27.80;60.80;;;27.89;44.16;95152.91;5051486;28;20202;-79
2022/07/04 09:05:58;;;;;;;0.20;0.20;;;27.70;60.30;;;27.85;44.30;95141.13;5067890;28;20232;-79
2022/07/04 09:08:25;;;;;;;0.30;0.30;;;27.70;60.70;;;27.79;44.22;95146.59;5034912;28;20208;-80
2022/07/04 09:10:54;;;;;;;0.30;0.30;;;27.60;60.40;;;27.71;44.15;95147.28;5034059;28;20222;-78
2022/07/04 09:13:21;;;;;;;0.30;0.30;;;27.60;60.40;;;27.69;44.57;95152.16;5051496;28;20236;-79
2022/07/04 09:15:50;;;;;;;0.40;0.40;;;27.50;60.90;;;27.69;44.57;95144.06;5066135;28;20232;-79
2022/07/04 09:18:32;;;;;;;0.30;0.30;;;27.50;60.90;;;27.70;45.28;95152.97;5060101;28;20218;-79
2022/07/04 09:21:03;;;;;;;0.30;0.30;;;27.50;61.10;;;27.77;44.08;95147.97;5064713;28;20258;-79
2022/07/04 09:23:35;;;;;;;0.30;0.30;;;27.50;60.90;;;27.87;44.25;95142.41;5071000;28;20198;-79
2022/07/04 09:26:22;;;;;;;0.30;0.30;;;27.50;60.60;;;28.01;43.98;95144.34;5066413;28;20733;-79
2022/07/04 09:28:57;;;;;;;0.30;0.30;;;27.60;60.70;;;28.14;44.24;95151.69;5070745;28;20211;-79
2022/07/04 09:31:27;;;;;;;0.30;0.30;;;27.70;60.70;;;28.22;43.68;95136.69;5071805;28;20225;-79
2022/07/04 09:34:02;;;;;;;0.30;0.30;;;27.70;60.50;;;28.33;43.51;95140.00;5037408;28;20279;-79
2022/07/04 09:36:43;;;;;;;0.30;0.30;;;27.80;60.60;;;28.39;41.82;95138.78;5067884;28;20219;-79
2022/07/04 09:39:19;;;;;;;0.30;0.30;;;28.00;59.10;;;28.50;43.04;95134.78;5035523;28;20224;-79
2022/07/04 09:42:01;;;;;;;0.30;0.30;;;28.00;59.30;;;28.63;42.84;95133.19;5056120;28;20217;-79
2022/07/04 09:44:51;;;;;;;0.30;0.30;;;28.10;59.50;;;28.72;39.69;95144.09;5032756;28;20198;-79
2022/07/04 09:47:27;;;;;;;0.30;0.30;;;28.20;57.10;;;28.74;39.86;95131.91;5050228;28;20229;-79
2022/07/04 09:50:14;;;;;;;0.30;0.30;;;28.40;56.80;;;28.89;41.12;95135.38;5038308;28;20223;-80
2022/07/04 09:52:56;;;;;;;0.30;0.30;;;28.50;58.00;;;29.00;40.23;95127.84;5029599;28;20358;-79
2022/07/04 09:55:34;;;;;;;0.20;0.20;;;28.60;57.50;;;29.06;39.96;95126.63;5036782;28;20256;-79
2022/07/04 09:58:13;;;;;;;0.30;0.30;;;28.60;56.40;;;29.15;40.70;95116.72;5050728;28;20206;-80
2022/07/04 10:00:44;;;;;;;0.30;0.30;;;28.70;57.40;;;29.26;40.85;95119.97;5051246;28;20222;-80
2022/07/04 10:03:28;;;;;;;0.30;0.30;;;28.80;58.00;;;29.36;40.07;95122.44;5051098;28;20202;-80
2022/07/04 10:06:11;;;;;;;0.30;0.30;;;28.90;57.20;;;29.46;40.32;95118.69;5036925;28;20214;-80
2022/07/04 10:08:42;;;;;;;0.28;0.28;;;29.00;58.70;;;29.57;39.20;95123.88;5068922;28;20238;-79
2022/07/04 10:11:11;;;;;;;0.20;0.20;;;29.10;55.90;;;29.65;38.32;95144.72;5058460;28;20321;-79
2022/07/04 10:13:46;;;;;;;0.30;0.30;;;29.20;55.50;;;29.71;37.94;95124.56;5055429;28;20628;-79
2022/07/04 10:16:16;;;;;;;0.30;0.30;;;29.30;54.20;;;29.78;37.57;95129.56;5044879;28;20240;-79
2022/07/04 10:18:44;;;;;;;0.30;0.30;;;29.40;53.80;;;29.82;37.02;95139.44;5054623;28;20362;-79
2022/07/04 10:21:12;;;;;;;0.30;0.30;;;29.50;55.40;;;29.85;37.89;95124.50;5053858;28;20232;-79
2022/07/04 10:23:40;;;;;;;0.30;0.30;;;29.60;53.80;;;29.86;37.96;95123.41;5051236;28;20271;-80
2022/07/04 10:26:08;;;;;;;0.30;0.30;;;29.60;54.00;;;29.87;38.15;95133.13;5046281;28;20225;-79
2022/07/04 10:28:38;;;;;;;0.40;0.40;;;29.70;54.00;;;29.84;37.81;95128.31;5040145;28;20207;-79
2022/07/04 10:31:05;;;;;;;0.30;0.30;;;29.60;53.90;;;29.80;39.16;95124.66;5058482;28;20214;-79
2022/07/04 10:33:34;;;;;;;0.25;0.25;;;29.60;54.90;;;29.78;39.12;95122.22;5064095;28;20214;-80
2022/07/04 10:36:04;;;;;;;0.30;0.30;;;29.60;54.70;;;29.81;39.48;95118.94;5053871;28;20206;-80
2022/07/04 10:38:34;;;;;;;0.30;0.30;;;29.60;55.20;;;29.90;39.83;95126.28;5050876;28;20211;-80